Time;durP1;ratioP1;P1;durP2;ratioP2;P2;SDS_P1;SDS_P2;PMS_P1;PMS_P2;Temp;Humidity;BMP_temperature;BMP_pressure;BME280_temperature;BME280_humidity;BME280_pressure;Samples;Min_cycle;Max_cycle;Signal;HPM_P1;HPM_P2
2021/11/26 10:00:20;;;;;;;13.00;6.13;;;;;;;3.48;80.73;97472.13;5127422;27;20550;-80
2021/11/26 10:02:52;;;;;;;14.27;6.90;;;;;;;4.05;79.16;97477.59;5128459;27;41340;-78
2021/11/26 10:05:19;;;;;;;12.53;5.80;;;;;;;4.51;76.45;97481.78;5089013;28;41804;-78
2021/11/26 10:07:50;;;;;;;12.47;5.90;;;;;;;4.85;75.09;97474.47;5105858;27;42541;-78
2021/11/26 10:10:21;;;;;;;10.33;5.67;;;;;;;5.04;73.05;97465.41;5110138;27;41064;-78
2021/11/26 10:12:58;;;;;;;11.43;6.00;;;;;;;5.36;71.79;97476.47;5110023;27;40962;-78
2021/11/26 10:15:42;;;;;;;11.73;6.10;;;;;;;5.47;71.04;97451.31;5092972;27;41627;-78
2021/11/26 10:18:14;;;;;;;10.73;5.60;;;;;;;5.72;70.08;97470.63;5109842;27;41712;-79
2021/11/26 10:20:55;;;;;;;10.20;5.63;;;;;;;5.80;68.74;97470.16;5126681;27;42175;-79
2021/11/26 10:23:25;;;;;;;10.70;5.77;;;;;;;5.91;68.40;97472.94;5093111;27;39711;-78
2021/11/26 10:25:52;;;;;;;9.07;5.33;;;;;;;6.00;67.88;97459.19;5092663;27;41953;-79
2021/11/26 10:28:21;;;;;;;12.23;5.90;;;;;;;6.03;67.79;97451.13;5109130;27;41667;-78
2021/11/26 10:30:51;;;;;;;11.47;5.53;;;;;;;6.06;67.08;97450.03;5110704;27;41249;-78
2021/11/26 10:33:23;;;;;;;8.23;4.83;;;;;;;6.04;67.09;97442.28;5128178;27;39663;-78
2021/11/26 10:35:55;;;;;;;9.67;5.27;;;;;;;6.01;66.45;97431.97;5092408;27;40900;-79
2021/11/26 10:38:26;;;;;;;13.33;6.10;;;;;;;5.98;66.50;97436.59;5108922;27;43492;-79
2021/11/26 10:40:55;;;;;;;11.93;5.13;;;;;;;5.99;66.84;97435.66;5092187;27;41101;-78
2021/11/26 10:43:26;;;;;;;13.47;6.93;;;;;;;6.03;66.70;97424.84;5109165;27;40103;-79
2021/11/26 10:59:47;;;;;;;8.87;5.03;;;;;;;6.22;65.49;97386.78;5097608;27;41840;-79
2021/11/26 11:02:26;;;;;;;11.23;5.47;;;;;;;6.29;65.72;97382.81;5108881;27;42750;-79
2021/11/26 11:04:55;;;;;;;10.13;4.90;;;;;;;6.32;65.71;97364.16;5092482;27;38765;-78
2021/11/26 11:07:23;;;;;;;17.37;7.47;;;;;;;6.43;65.85;97364.25;5091764;27;40685;-79
2021/11/26 11:09:53;;;;;;;10.13;5.00;;;;;;;6.54;65.15;97361.75;5084469;28;41644;-79
2021/11/26 11:12:31;;;;;;;9.73;4.63;;;;;;;6.56;64.40;97356.34;5108511;28;41888;-79
2021/11/26 11:15:00;;;;;;;11.97;5.57;;;;;;;6.61;64.98;97355.09;5058273;28;41973;-78
2021/11/26 11:17:30;;;;;;;9.73;4.73;;;;;;;6.68;64.92;97343.19;5075561;28;42689;-79
2021/11/26 11:20:03;;;;;;;11.33;5.97;;;;;;;6.70;64.43;97341.28;5091343;28;43456;-78
2021/11/26 11:22:32;;;;;;;12.00;5.20;;;;;;;6.76;64.08;97334.78;5077674;28;41146;-79
2021/11/26 11:25:00;;;;;;;9.53;5.47;;;;;;;6.76;63.25;97335.59;5113035;28;39847;-79
2021/11/26 11:27:29;;;;;;;10.87;5.30;;;;;;;6.75;63.93;97328.66;5095773;28;41932;-79
2021/11/26 11:29:57;;;;;;;10.30;5.27;;;;;;;6.84;64.01;97327.16;5094289;28;43347;-79
2021/11/26 11:32:26;;;;;;;11.57;5.63;;;;;;;6.89;63.22;97324.22;5095202;28;43377;-78
2021/11/26 11:34:57;;;;;;;10.17;5.63;;;;;;;6.92;63.34;97313.47;5077944;28;39389;-79
2021/11/26 11:37:27;;;;;;;10.37;5.23;;;;;;;6.96;62.75;97317.53;5113001;28;40986;-79
2021/11/26 11:39:58;;;;;;;10.17;5.13;;;;;;;6.96;63.01;97293.84;5108733;28;42750;-79
2021/11/26 11:42:27;;;;;;;10.93;5.37;;;;;;;7.95;61.90;97305.69;5074664;28;42099;-78
2021/11/26 11:45:00;;;;;;;11.83;5.87;;;;;;;8.57;59.35;97307.91;5058238;28;40371;-79
2021/11/26 11:47:28;;;;;;;12.77;6.70;;;;;;;8.60;58.17;97305.03;5108781;28;42489;-79
2021/11/26 11:50:09;;;;;;;12.30;6.47;;;;;;;8.71;57.62;97315.56;5092425;28;43727;-79
2021/11/26 11:52:43;;;;;;;13.07;5.73;;;;;;;8.80;57.84;97304.25;5057789;28;41912;-79
2021/11/26 11:55:26;;;;;;;9.73;6.30;;;;;;;8.95;57.73;97297.75;5057458;28;38829;-79
2021/11/26 11:57:57;;;;;;;11.03;6.87;;;;;;;8.99;57.43;97293.91;5088369;28;40767;-79
2021/11/26 12:00:35;;;;;;;12.43;7.20;;;;;;;8.97;56.93;97300.28;5076705;28;41426;-78
2021/11/26 12:03:08;;;;;;;14.30;6.80;;;;;;;8.92;56.52;97300.63;5094709;28;41087;-79
2021/11/26 12:05:56;;;;;;;13.10;6.90;;;;;;;8.94;57.22;97285.53;5094418;28;40996;-80
2021/11/26 12:08:24;;;;;;;13.13;5.83;;;;;;;9.02;57.45;97281.44;5093955;28;40738;-80
2021/11/26 12:10:55;;;;;;;12.83;6.50;;;;;;;9.08;57.22;97273.00;5094084;28;43251;-79
2021/11/26 12:13:27;;;;;;;15.13;7.07;;;;;;;9.08;56.53;97271.19;5094277;28;42684;-80
2021/11/26 12:16:10;;;;;;;13.90;6.83;;;;;;;8.96;55.75;97272.19;5094040;28;39985;-80
2021/11/26 12:18:41;;;;;;;14.47;7.47;;;;;;;8.69;56.60;97254.16;5112223;28;42130;-79
2021/11/26 12:21:12;;;;;;;10.33;6.20;;;;;;;8.63;57.22;97252.84;5093247;28;42492;-80
2021/11/26 12:23:56;;;;;;;13.37;6.60;;;;;;;8.52;57.06;97263.44;5111172;28;43115;-80
2021/11/26 12:26:27;;;;;;;11.63;5.60;;;;;;;8.41;57.96;97254.66;5094027;28;39180;-79
2021/11/26 12:28:58;;;;;;;12.00;6.97;;;;;;;8.33;57.80;97247.38;5077063;28;41366;-80
2021/11/26 12:31:31;;;;;;;12.73;6.27;;;;;;;8.24;58.24;97243.63;5093351;28;42895;-80
2021/11/26 12:34:01;;;;;;;15.57;5.83;;;;;;;8.17;57.91;97238.94;5079216;28;41116;-80
2021/11/26 12:36:56;;;;;;;11.43;5.90;;;;;;;8.04;58.21;97228.53;5118134;28;39890;-79
2021/11/26 12:39:29;;;;;;;10.77;5.53;;;;;;;8.02;58.52;97219.09;5119261;28;41950;-80
2021/11/26 12:42:00;;;;;;;13.63;6.90;;;;;;;8.01;58.01;97215.59;5080609;28;41980;-79
2021/11/26 12:44:32;;;;;;;14.00;6.87;;;;;;;7.89;57.90;97201.59;5097651;28;42660;-80
2021/11/26 12:47:03;;;;;;;11.57;5.67;;;;;;;7.97;58.00;97216.78;5078956;28;39085;-80
2021/11/26 12:52:24;;;;;;;11.60;5.87;;;;;;;7.97;58.00;97197.50;5059049;28;42744;-81
2021/11/26 12:54:54;;;;;;;13.30;6.27;;;;;;;7.86;58.08;97195.72;5093240;28;41072;-80
2021/11/26 12:57:24;;;;;;;12.47;6.33;;;;;;;7.82;58.36;97191.63;5097705;27;40181;-80
2021/11/26 12:59:53;;;;;;;14.93;6.20;;;;;;;7.82;58.59;97189.00;5096491;27;40621;-81
2021/11/26 13:02:25;;;;;;;10.93;5.73;;;;;;;7.74;58.94;97165.88;5109749;27;41904;-80
2021/11/26 13:04:55;;;;;;;10.17;5.60;;;;;;;7.82;59.23;97173.19;5077189;28;40958;-80
2021/11/26 13:07:26;;;;;;;11.57;5.67;;;;;;;7.83;58.67;97174.88;5097730;27;38877;-80
2021/11/26 13:09:55;;;;;;;12.43;6.07;;;;;;;7.79;58.94;97153.19;5112480;27;40640;-80
2021/11/26 13:12:29;;;;;;;9.70;4.80;;;;;;;7.75;58.68;97161.47;5098950;28;43782;-80
2021/11/26 13:14:59;;;;;;;10.67;5.50;;;;;;;7.72;58.89;97152.00;5092442;28;42215;-79
2021/11/26 13:17:35;;;;;;;10.77;5.37;;;;;;;7.65;58.85;97155.22;5093239;28;39738;-79
2021/11/26 13:20:12;;;;;;;12.10;5.93;;;;;;;7.55;59.25;97149.81;5076024;28;41471;-79
2021/11/26 13:22:47;;;;;;;9.47;5.60;;;;;;;7.48;59.05;97146.00;5114771;27;42307;-80
2021/11/26 13:25:18;;;;;;;12.30;5.87;;;;;;;7.40;59.45;97135.22;5090567;28;43152;-79
2021/11/26 13:27:52;;;;;;;9.93;5.37;;;;;;;7.37;59.63;97119.66;5056597;28;40370;-80
2021/11/26 13:30:22;;;;;;;8.27;5.33;;;;;;;7.17;59.88;97098.31;5088280;28;42634;-79
2021/11/26 13:32:51;;;;;;;10.97;5.63;;;;;;;7.26;59.99;97123.13;5082952;28;42924;-80
2021/11/26 13:35:26;;;;;;;12.07;5.73;;;;;;;7.25;60.31;97116.19;5097792;28;42962;-80
2021/11/26 13:37:57;;;;;;;13.87;5.57;;;;;;;7.22;60.18;97116.41;5090896;28;39182;-79
2021/11/26 13:40:36;;;;;;;8.13;4.93;;;;;;;7.19;60.00;97116.63;5075434;28;40948;-80
2021/11/26 13:43:04;;;;;;;11.63;5.97;;;;;;;7.02;60.28;97096.88;5075607;28;42738;-80
2021/11/26 13:45:34;;;;;;;8.70;4.93;;;;;;;7.11;60.27;97119.03;5087204;28;41379;-80
2021/11/26 13:48:02;;;;;;;9.77;4.73;;;;;;;7.09;60.45;97105.13;5143037;27;40636;-79
2021/11/26 13:50:30;;;;;;;9.63;5.53;;;;;;;7.05;60.90;97108.94;5125466;27;40407;-80
2021/11/26 13:53:00;;;;;;;11.47;5.23;;;;;;;6.96;61.03;97088.59;5109460;28;42629;-79
2021/11/26 13:55:27;;;;;;;12.03;5.67;;;;;;;6.89;61.06;97092.66;5091001;28;41423;-79
2021/11/26 13:58:06;;;;;;;7.83;4.37;;;;;;;6.84;61.37;97095.63;5108852;28;40296;-80
2021/11/26 14:00:41;;;;;;;9.13;4.87;;;;;;;6.79;61.20;97103.91;5109419;28;41369;-79
2021/11/26 14:03:09;;;;;;;10.20;4.97;;;;;;;6.71;61.24;97095.72;5108474;28;41828;-80
2021/11/26 14:05:42;;;;;;;9.90;5.67;;;;;;;6.55;61.45;97066.28;5087176;28;41237;-80
2021/11/26 14:08:17;;;;;;;9.67;5.90;;;;;;;6.63;61.78;97077.06;5092111;28;38638;-79
2021/11/26 14:10:53;;;;;;;12.23;5.37;;;;;;;6.63;61.82;97082.31;5103364;27;41644;-81
2021/11/26 14:13:23;;;;;;;12.13;5.10;;;;;;;6.50;61.70;97057.88;5080005;28;41447;-80
2021/11/26 14:16:02;;;;;;;9.50;5.13;;;;;;;6.57;62.02;97072.25;5077950;28;42794;-81
2021/11/26 14:18:30;;;;;;;12.40;5.87;;;;;;;6.59;62.29;97067.72;5076542;28;40045;-80
2021/11/26 14:21:04;;;;;;;11.80;5.17;;;;;;;6.45;62.01;97036.34;5082634;28;42133;-81
2021/11/26 14:23:35;;;;;;;8.83;5.50;;;;;;;6.62;61.96;97062.22;5077385;28;43212;-79
2021/11/26 14:26:08;;;;;;;10.73;6.20;;;;;;;6.57;61.93;97056.47;5113154;27;42357;-81
2021/11/26 14:28:36;;;;;;;11.47;5.07;;;;;;;6.56;61.68;97056.56;5107086;28;40095;-81
2021/11/26 14:31:07;;;;;;;11.93;6.10;;;;;;;6.46;62.02;97048.53;5079387;28;40678;-81
2021/11/26 14:33:36;;;;;;;14.83;7.13;;;;;;;6.35;61.96;97030.09;5096626;28;41457;-80
2021/11/26 14:36:08;;;;;;;15.87;6.83;;;;;;;6.43;62.35;97043.50;5079650;28;41578;-80
2021/11/26 14:38:46;;;;;;;11.83;5.23;;;;;;;6.40;62.24;97043.75;5080292;28;39908;-80
2021/11/26 14:41:16;;;;;;;12.03;5.87;;;;;;;6.33;62.42;97043.34;5125317;27;41367;-80
2021/11/26 14:43:45;;;;;;;16.07;7.03;;;;;;;6.22;62.44;97039.84;5094079;27;43237;-79
2021/11/26 14:46:15;;;;;;;10.80;5.37;;;;;;;6.19;62.83;97034.81;5083173;28;41421;-80
2021/11/26 14:48:48;;;;;;;9.00;5.73;;;;;;;6.12;63.00;97027.41;5099845;28;39705;-82
2021/11/26 14:51:25;;;;;;;11.97;6.67;;;;;;;6.00;63.05;97009.91;5077885;27;40499;-80
2021/11/26 14:53:55;;;;;;;12.10;6.07;;;;;;;6.03;63.21;97014.94;5081441;27;42963;-80
2021/11/26 14:56:24;;;;;;;10.77;5.63;;;;;;;6.01;63.38;97016.84;5110439;28;43061;-81
2021/11/26 14:58:52;;;;;;;13.90;6.63;;;;;;;5.98;63.58;97005.72;5083258;27;38976;-81
2021/11/26 15:01:22;;;;;;;10.47;6.23;;;;;;;5.97;63.71;97006.66;5100702;28;41867;-80
2021/11/26 15:03:50;;;;;;;10.37;6.13;;;;;;;5.87;63.99;96998.59;5096722;27;43702;-81
2021/11/26 15:06:18;;;;;;;11.97;6.10;;;;;;;5.77;64.10;96976.59;5079251;27;41085;-79
2021/11/26 15:08:46;;;;;;;12.60;6.10;;;;;;;5.82;64.16;96987.56;5083763;28;40076;-81
2021/11/26 15:11:15;;;;;;;8.77;5.23;;;;;;;5.70;64.56;96964.84;5117130;27;40924;-79
2021/11/26 15:13:43;;;;;;;14.23;6.27;;;;;;;5.60;65.13;96964.66;5092124;28;41797;-81
2021/11/26 15:16:12;;;;;;;13.03;6.20;;;;;;;5.67;65.00;96975.59;5113692;27;42242;-79
2021/11/26 15:18:39;;;;;;;12.53;7.03;;;;;;;5.68;65.32;96967.59;5106740;28;40038;-80
2021/11/26 15:21:07;;;;;;;11.37;5.33;;;;;;;5.66;65.51;96963.41;5070294;27;41804;-80
2021/11/26 15:23:35;;;;;;;10.10;5.63;;;;;;;5.63;65.87;96968.88;5093852;28;41308;-80
2021/11/26 15:26:03;;;;;;;10.87;6.53;;;;;;;5.59;66.08;96972.66;5095151;27;41670;-81
2021/11/26 15:28:32;;;;;;;11.07;6.93;;;;;;;5.51;66.50;96964.50;5125643;27;40674;-80
2021/11/26 15:31:01;;;;;;;12.33;7.33;;;;;;;5.12;66.68;96900.81;5145212;27;41790;-81
2021/11/26 15:33:30;;;;;;;10.97;6.10;;;;;;;5.46;66.72;96956.13;5111295;28;41650;-81
2021/11/26 15:35:59;;;;;;;13.50;6.57;;;;;;;5.42;67.05;96950.28;5094520;28;41066;-80
2021/11/26 15:38:28;;;;;;;10.37;6.03;;;;;;;5.25;67.15;96937.50;5093401;28;38835;-80
2021/11/26 15:40:56;;;;;;;15.47;6.23;;;;;;;5.32;67.12;96939.56;5094035;28;42186;-80
2021/11/26 15:43:25;;;;;;;9.07;5.00;;;;;;;5.21;67.55;96926.38;5088014;28;42982;-79
2021/11/26 15:45:54;;;;;;;10.93;5.27;;;;;;;5.22;67.44;96935.09;5094208;28;41389;-79
2021/11/26 15:48:22;;;;;;;11.40;6.80;;;;;;;5.33;67.06;96945.66;5095286;28;39193;-79
2021/11/26 15:50:53;;;;;;;13.13;6.13;;;;;;;5.29;67.38;96946.84;5111356;28;41866;-79
2021/11/26 15:53:21;;;;;;;12.43;6.57;;;;;;;5.27;67.59;96952.22;5138189;27;43836;-79
2021/11/26 15:55:49;;;;;;;12.60;6.03;;;;;;;5.25;67.46;96955.88;5093790;27;42301;-80
2021/11/26 15:58:17;;;;;;;14.90;7.27;;;;;;;5.24;67.32;96947.16;5078372;28;39362;-80
